sensor_id;sensor_type;location;lat;lon;timestamp;pressure;altitude;pressure_sealevel;temperature;humidity
53270;BME280;39159;45.634;9.420;2023-05-25T00:02:09;98770.31;;;14.64;100.00
53270;BME280;39159;45.634;9.420;2023-05-25T00:04:39;98778.00;;;14.71;100.00
53270;BME280;39159;45.634;9.420;2023-05-25T00:07:05;98771.03;;;14.74;100.00
53270;BME280;39159;45.634;9.420;2023-05-25T00:09:30;98772.28;;;14.76;100.00
53270;BME280;39159;45.634;9.420;2023-05-25T00:11:55;98767.94;;;14.75;100.00
53270;BME280;39159;45.634;9.420;2023-05-25T00:14:22;98763.25;;;14.76;100.00
53270;BME280;39159;45.634;9.420;2023-05-25T00:16:47;98764.03;;;14.76;100.00
53270;BME280;39159;45.634;9.420;2023-05-25T00:19:14;98763.25;;;14.76;100.00
53270;BME280;39159;45.634;9.420;2023-05-25T00:21:40;98760.03;;;14.74;100.00
53270;BME280;39159;45.634;9.420;2023-05-25T00:24:06;98762.66;;;14.70;100.00
53270;BME280;39159;45.634;9.420;2023-05-25T00:26:32;98761.16;;;14.60;100.00
53270;BME280;39159;45.634;9.420;2023-05-25T00:28:58;98756.81;;;14.59;100.00
53270;BME280;39159;45.634;9.420;2023-05-25T00:31:25;98751.38;;;14.50;100.00
53270;BME280;39159;45.634;9.420;2023-05-25T00:33:51;98749.66;;;14.46;100.00
53270;BME280;39159;45.634;9.420;2023-05-25T00:36:16;98750.78;;;14.45;100.00
53270;BME280;39159;45.634;9.420;2023-05-25T00:38:42;98753.97;;;14.35;100.00
53270;BME280;39159;45.634;9.420;2023-05-25T00:41:07;98753.81;;;14.31;100.00
53270;BME280;39159;45.634;9.420;2023-05-25T00:43:34;98763.78;;;14.36;100.00
53270;BME280;39159;45.634;9.420;2023-05-25T00:46:00;98767.47;;;14.40;100.00
53270;BME280;39159;45.634;9.420;2023-05-25T00:48:27;98765.66;;;14.44;100.00
53270;BME280;39159;45.634;9.420;2023-05-25T00:50:55;98765.78;;;14.47;100.00
53270;BME280;39159;45.634;9.420;2023-05-25T00:53:24;98767.06;;;14.50;100.00
53270;BME280;39159;45.634;9.420;2023-05-25T00:56:51;98764.50;;;14.45;100.00
53270;BME280;39159;45.634;9.420;2023-05-25T00:58:45;98773.41;;;14.42;100.00
53270;BME280;39159;45.634;9.420;2023-05-25T01:01:14;98773.09;;;14.43;100.00
53270;BME280;39159;45.634;9.420;2023-05-25T01:03:43;98766.91;;;14.46;100.00
53270;BME280;39159;45.634;9.420;2023-05-25T01:06:13;98763.84;;;14.48;100.00
53270;BME280;39159;45.634;9.420;2023-05-25T01:08:41;98762.56;;;14.45;100.00
53270;BME280;39159;45.634;9.420;2023-05-25T01:11:10;98765.19;;;14.42;100.00
53270;BME280;39159;45.634;9.420;2023-05-25T01:13:37;98762.44;;;14.42;100.00
53270;BME280;39159;45.634;9.420;2023-05-25T01:16:04;98763.31;;;14.34;100.00
53270;BME280;39159;45.634;9.420;2023-05-25T01:18:30;98751.75;;;14.28;100.00
53270;BME280;39159;45.634;9.420;2023-05-25T01:21:34;98760.53;;;14.21;100.00
53270;BME280;39159;45.634;9.420;2023-05-25T01:24:12;98755.69;;;14.18;100.00
53270;BME280;39159;45.634;9.420;2023-05-25T01:26:53;98758.19;;;14.11;100.00
53270;BME280;39159;45.634;9.420;2023-05-25T01:29:20;98759.34;;;14.10;100.00
53270;BME280;39159;45.634;9.420;2023-05-25T01:31:48;98761.72;;;14.12;100.00
53270;BME280;39159;45.634;9.420;2023-05-25T01:34:15;98762.56;;;14.12;100.00
53270;BME280;39159;45.634;9.420;2023-05-25T01:36:41;98770.31;;;14.10;100.00
53270;BME280;39159;45.634;9.420;2023-05-25T01:39:08;98765.50;;;14.07;100.00
53270;BME280;39159;45.634;9.420;2023-05-25T01:41:35;98768.22;;;14.07;100.00
53270;BME280;39159;45.634;9.420;2023-05-25T01:44:00;98774.06;;;14.05;100.00
53270;BME280;39159;45.634;9.420;2023-05-25T01:46:32;98775.66;;;14.06;100.00
53270;BME280;39159;45.634;9.420;2023-05-25T01:49:26;98769.38;;;14.06;100.00
53270;BME280;39159;45.634;9.420;2023-05-25T01:52:14;98775.66;;;14.06;100.00
53270;BME280;39159;45.634;9.420;2023-05-25T01:54:52;98778.41;;;14.06;100.00
53270;BME280;39159;45.634;9.420;2023-05-25T01:57:19;98778.19;;;14.12;100.00
53270;BME280;39159;45.634;9.420;2023-05-25T01:59:46;98776.84;;;14.18;100.00
53270;BME280;39159;45.634;9.420;2023-05-25T02:02:17;98781.56;;;14.17;100.00
53270;BME280;39159;45.634;9.420;2023-05-25T02:04:43;98795.88;;;14.23;100.00
53270;BME280;39159;45.634;9.420;2023-05-25T02:07:09;98797.56;;;14.15;100.00
53270;BME280;39159;45.634;9.420;2023-05-25T02:09:35;98793.22;;;14.14;100.00
53270;BME280;39159;45.634;9.420;2023-05-25T02:12:00;98790.00;;;14.12;100.00
53270;BME280;39159;45.634;9.420;2023-05-25T02:14:26;98795.66;;;14.07;100.00
53270;BME280;39159;45.634;9.420;2023-05-25T02:16:52;98789.28;;;14.03;100.00
53270;BME280;39159;45.634;9.420;2023-05-25T02:19:17;98789.91;;;14.00;100.00
53270;BME280;39159;45.634;9.420;2023-05-25T02:21:43;98795.09;;;14.01;100.00
53270;BME280;39159;45.634;9.420;2023-05-25T02:24:09;98790.06;;;14.03;100.00
53270;BME280;39159;45.634;9.420;2023-05-25T02:26:36;98788.59;;;14.06;100.00
53270;BME280;39159;45.634;9.420;2023-05-25T02:29:02;98787.91;;;14.09;100.00
53270;BME280;39159;45.634;9.420;2023-05-25T02:31:27;98785.44;;;14.16;100.00
53270;BME280;39159;45.634;9.420;2023-05-25T02:33:53;98795.41;;;14.21;100.00
53270;BME280;39159;45.634;9.420;2023-05-25T02:36:18;98775.19;;;14.25;100.00
53270;BME280;39159;45.634;9.420;2023-05-25T02:38:44;98785.97;;;14.30;100.00
53270;BME280;39159;45.634;9.420;2023-05-25T02:41:11;98799.81;;;14.34;100.00
53270;BME280;39159;45.634;9.420;2023-05-25T02:43:37;98806.13;;;14.35;100.00
53270;BME280;39159;45.634;9.420;2023-05-25T02:46:03;98806.44;;;14.33;100.00
53270;BME280;39159;45.634;9.420;2023-05-25T02:48:28;98786.91;;;14.14;100.00
53270;BME280;39159;45.634;9.420;2023-05-25T02:50:54;98779.81;;;13.92;100.00
53270;BME280;39159;45.634;9.420;2023-05-25T02:53:19;98786.44;;;13.91;100.00
53270;BME280;39159;45.634;9.420;2023-05-25T02:55:45;98786.91;;;13.93;100.00
53270;BME280;39159;45.634;9.420;2023-05-25T02:58:10;98799.16;;;13.95;100.00
53270;BME280;39159;45.634;9.420;2023-05-25T03:00:36;98793.81;;;13.99;100.00
53270;BME280;39159;45.634;9.420;2023-05-25T03:03:01;98804.09;;;14.02;100.00
53270;BME280;39159;45.634;9.420;2023-05-25T03:05:27;98803.25;;;14.10;100.00
53270;BME280;39159;45.634;9.420;2023-05-25T03:07:52;98805.00;;;14.15;100.00
53270;BME280;39159;45.634;9.420;2023-05-25T03:10:18;98809.00;;;14.17;100.00
53270;BME280;39159;45.634;9.420;2023-05-25T03:12:43;98806.47;;;14.12;100.00
53270;BME280;39159;45.634;9.420;2023-05-25T03:15:09;98817.22;;;14.17;100.00
53270;BME280;39159;45.634;9.420;2023-05-25T03:17:37;98819.28;;;14.20;100.00
53270;BME280;39159;45.634;9.420;2023-05-25T03:20:03;98818.50;;;14.20;100.00
53270;BME280;39159;45.634;9.420;2023-05-25T03:22:28;98824.78;;;14.20;100.00
53270;BME280;39159;45.634;9.420;2023-05-25T03:24:54;98828.00;;;14.22;100.00
53270;BME280;39159;45.634;9.420;2023-05-25T03:27:19;98827.53;;;14.20;100.00
53270;BME280;39159;45.634;9.420;2023-05-25T03:29:44;98831.28;;;14.16;100.00
53270;BME280;39159;45.634;9.420;2023-05-25T03:32:12;98818.56;;;14.11;100.00
53270;BME280;39159;45.634;9.420;2023-05-25T03:34:38;98828.28;;;14.08;100.00
53270;BME280;39159;45.634;9.420;2023-05-25T03:37:04;98826.16;;;14.14;100.00
53270;BME280;39159;45.634;9.420;2023-05-25T03:39:30;98826.94;;;14.15;100.00
53270;BME280;39159;45.634;9.420;2023-05-25T03:41:55;98829.00;;;14.18;100.00
53270;BME280;39159;45.634;9.420;2023-05-25T03:44:22;98831.09;;;14.21;100.00
53270;BME280;39159;45.634;9.420;2023-05-25T03:46:47;98836.19;;;14.10;100.00
53270;BME280;39159;45.634;9.420;2023-05-25T03:49:13;98835.91;;;14.03;100.00
53270;BME280;39159;45.634;9.420;2023-05-25T03:51:42;98838.03;;;13.97;100.00
53270;BME280;39159;45.634;9.420;2023-05-25T03:54:07;98837.72;;;13.99;100.00
53270;BME280;39159;45.634;9.420;2023-05-25T03:56:33;98849.16;;;14.01;100.00
53270;BME280;39159;45.634;9.420;2023-05-25T03:58:58;98844.78;;;14.00;100.00
53270;BME280;39159;45.634;9.420;2023-05-25T04:01:24;98854.19;;;13.99;100.00
53270;BME280;39159;45.634;9.420;2023-05-25T04:03:51;98862.81;;;14.09;100.00
53270;BME280;39159;45.634;9.420;2023-05-25T04:06:17;98861.81;;;14.14;100.00
53270;BME280;39159;45.634;9.420;2023-05-25T04:08:44;98863.03;;;14.25;100.00
53270;BME280;39159;45.634;9.420;2023-05-25T04:11:09;98864.63;;;14.26;100.00
53270;BME280;39159;45.634;9.420;2023-05-25T04:13:35;98874.19;;;14.20;100.00
53270;BME280;39159;45.634;9.420;2023-05-25T04:16:01;98878.34;;;14.26;100.00
53270;BME280;39159;45.634;9.420;2023-05-25T04:18:26;98879.09;;;14.36;100.00
53270;BME280;39159;45.634;9.420;2023-05-25T04:20:52;98886.00;;;14.42;100.00
53270;BME280;39159;45.634;9.420;2023-05-25T04:23:19;98896.66;;;14.43;100.00
53270;BME280;39159;45.634;9.420;2023-05-25T04:25:45;98900.19;;;14.44;100.00
53270;BME280;39159;45.634;9.420;2023-05-25T04:28:11;98902.47;;;14.42;100.00
53270;BME280;39159;45.634;9.420;2023-05-25T04:30:37;98906.34;;;14.41;100.00
53270;BME280;39159;45.634;9.420;2023-05-25T04:33:03;98909.28;;;14.36;100.00
53270;BME280;39159;45.634;9.420;2023-05-25T04:35:29;98911.56;;;14.34;100.00
53270;BME280;39159;45.634;9.420;2023-05-25T04:37:55;98913.81;;;14.31;100.00
53270;BME280;39159;45.634;9.420;2023-05-25T04:40:21;98911.09;;;14.31;100.00
53270;BME280;39159;45.634;9.420;2023-05-25T04:42:46;98919.16;;;14.37;100.00
53270;BME280;39159;45.634;9.420;2023-05-25T04:45:12;98910.75;;;14.33;100.00
53270;BME280;39159;45.634;9.420;2023-05-25T04:47:42;98912.09;;;14.27;100.00
53270;BME280;39159;45.634;9.420;2023-05-25T04:50:08;98922.28;;;14.26;100.00
53270;BME280;39159;45.634;9.420;2023-05-25T04:52:34;98922.59;;;14.25;100.00
53270;BME280;39159;45.634;9.420;2023-05-25T04:55:00;98926.50;;;14.24;100.00
53270;BME280;39159;45.634;9.420;2023-05-25T04:57:27;98925.69;;;14.23;100.00
53270;BME280;39159;45.634;9.420;2023-05-25T04:59:53;98927.16;;;14.21;100.00
53270;BME280;39159;45.634;9.420;2023-05-25T05:02:19;98933.13;;;14.23;100.00
53270;BME280;39159;45.634;9.420;2023-05-25T05:04:44;98934.88;;;14.27;100.00
53270;BME280;39159;45.634;9.420;2023-05-25T05:07:10;98933.00;;;14.40;100.00
53270;BME280;39159;45.634;9.420;2023-05-25T05:09:36;98940.91;;;14.42;100.00
53270;BME280;39159;45.634;9.420;2023-05-25T05:12:01;98938.22;;;14.33;100.00
53270;BME280;39159;45.634;9.420;2023-05-25T05:14:27;98947.72;;;14.36;100.00
53270;BME280;39159;45.634;9.420;2023-05-25T05:16:52;98943.91;;;14.28;100.00
53270;BME280;39159;45.634;9.420;2023-05-25T05:19:18;98961.22;;;14.20;100.00
53270;BME280;39159;45.634;9.420;2023-05-25T05:21:43;98961.09;;;14.16;100.00
53270;BME280;39159;45.634;9.420;2023-05-25T05:24:09;98958.19;;;14.13;100.00
53270;BME280;39159;45.634;9.420;2023-05-25T05:26:34;98960.00;;;14.08;100.00
53270;BME280;39159;45.634;9.420;2023-05-25T05:29:00;98948.69;;;14.10;100.00
53270;BME280;39159;45.634;9.420;2023-05-25T05:31:26;98952.50;;;14.18;100.00
53270;BME280;39159;45.634;9.420;2023-05-25T05:33:51;98954.72;;;14.24;100.00
53270;BME280;39159;45.634;9.420;2023-05-25T05:36:17;98953.56;;;14.34;100.00
53270;BME280;39159;45.634;9.420;2023-05-25T05:38:42;98960.59;;;14.44;100.00
53270;BME280;39159;45.634;9.420;2023-05-25T05:41:11;98954.72;;;14.54;100.00
53270;BME280;39159;45.634;9.420;2023-05-25T05:43:38;98955.00;;;14.61;100.00
53270;BME280;39159;45.634;9.420;2023-05-25T05:46:06;98962.72;;;14.68;100.00
53270;BME280;39159;45.634;9.420;2023-05-25T05:48:32;98959.75;;;14.73;100.00
53270;BME280;39159;45.634;9.420;2023-05-25T05:50:57;98972.81;;;14.76;100.00
53270;BME280;39159;45.634;9.420;2023-05-25T05:53:22;98978.13;;;14.81;100.00
53270;BME280;39159;45.634;9.420;2023-05-25T05:55:48;98978.25;;;14.85;100.00
53270;BME280;39159;45.634;9.420;2023-05-25T05:58:17;98986.97;;;14.87;100.00
53270;BME280;39159;45.634;9.420;2023-05-25T06:00:43;98990.00;;;14.94;100.00
53270;BME280;39159;45.634;9.420;2023-05-25T06:03:08;98990.44;;;14.96;100.00
53270;BME280;39159;45.634;9.420;2023-05-25T06:05:34;98996.81;;;15.09;100.00
53270;BME280;39159;45.634;9.420;2023-05-25T06:07:59;98997.66;;;15.22;100.00
53270;BME280;39159;45.634;9.420;2023-05-25T06:10:25;98997.13;;;15.28;100.00
53270;BME280;39159;45.634;9.420;2023-05-25T06:12:51;99000.00;;;15.32;100.00
53270;BME280;39159;45.634;9.420;2023-05-25T06:15:16;99011.03;;;15.44;100.00
53270;BME280;39159;45.634;9.420;2023-05-25T06:17:42;99012.44;;;15.50;100.00
53270;BME280;39159;45.634;9.420;2023-05-25T06:20:08;99019.44;;;15.60;100.00
53270;BME280;39159;45.634;9.420;2023-05-25T06:22:34;99021.88;;;15.62;100.00
53270;BME280;39159;45.634;9.420;2023-05-25T06:25:00;99025.66;;;15.69;100.00
53270;BME280;39159;45.634;9.420;2023-05-25T06:27:25;99025.72;;;15.82;100.00
53270;BME280;39159;45.634;9.420;2023-05-25T06:29:51;99026.09;;;15.92;100.00
53270;BME280;39159;45.634;9.420;2023-05-25T06:32:16;99039.84;;;16.05;100.00
53270;BME280;39159;45.634;9.420;2023-05-25T06:34:41;99035.97;;;16.18;100.00
53270;BME280;39159;45.634;9.420;2023-05-25T06:37:07;99045.28;;;16.26;100.00
53270;BME280;39159;45.634;9.420;2023-05-25T06:39:32;99054.00;;;16.40;100.00
53270;BME280;39159;45.634;9.420;2023-05-25T06:41:58;99062.38;;;16.44;100.00
53270;BME280;39159;45.634;9.420;2023-05-25T06:44:23;99059.50;;;16.40;100.00
53270;BME280;39159;45.634;9.420;2023-05-25T06:46:48;99059.16;;;16.29;100.00
53270;BME280;39159;45.634;9.420;2023-05-25T06:49:14;99061.91;;;16.29;100.00
53270;BME280;39159;45.634;9.420;2023-05-25T06:51:39;99069.25;;;16.37;100.00
53270;BME280;39159;45.634;9.420;2023-05-25T06:54:05;99067.44;;;16.42;100.00
53270;BME280;39159;45.634;9.420;2023-05-25T06:56:32;99070.19;;;16.42;100.00
53270;BME280;39159;45.634;9.420;2023-05-25T06:58:58;99075.94;;;16.36;100.00
53270;BME280;39159;45.634;9.420;2023-05-25T07:01:23;99079.38;;;16.46;100.00
53270;BME280;39159;45.634;9.420;2023-05-25T07:03:49;99085.13;;;16.53;100.00
53270;BME280;39159;45.634;9.420;2023-05-25T07:06:14;99080.75;;;16.64;100.00
53270;BME280;39159;45.634;9.420;2023-05-25T07:08:41;99086.47;;;16.71;100.00
53270;BME280;39159;45.634;9.420;2023-05-25T07:11:06;99086.13;;;16.73;100.00
53270;BME280;39159;45.634;9.420;2023-05-25T07:13:34;99088.78;;;16.69;100.00
53270;BME280;39159;45.634;9.420;2023-05-25T07:16:00;99090.06;;;16.84;100.00
53270;BME280;39159;45.634;9.420;2023-05-25T07:18:26;99093.41;;;16.90;100.00
53270;BME280;39159;45.634;9.420;2023-05-25T07:20:51;99092.47;;;16.86;100.00
53270;BME280;39159;45.634;9.420;2023-05-25T07:23:17;99106.47;;;16.93;100.00
53270;BME280;39159;45.634;9.420;2023-05-25T07:25:43;99100.25;;;17.08;100.00
53270;BME280;39159;45.634;9.420;2023-05-25T07:28:08;99113.78;;;17.26;100.00
53270;BME280;39159;45.634;9.420;2023-05-25T07:30:33;99121.00;;;17.30;100.00
53270;BME280;39159;45.634;9.420;2023-05-25T07:32:59;99119.63;;;17.24;100.00
53270;BME280;39159;45.634;9.420;2023-05-25T07:35:25;99124.09;;;17.29;100.00
53270;BME280;39159;45.634;9.420;2023-05-25T07:37:58;99128.63;;;17.49;100.00
53270;BME280;39159;45.634;9.420;2023-05-25T07:40:23;99120.81;;;17.51;100.00
53270;BME280;39159;45.634;9.420;2023-05-25T07:42:49;99131.84;;;17.51;100.00
53270;BME280;39159;45.634;9.420;2023-05-25T07:45:14;99133.25;;;17.45;100.00
53270;BME280;39159;45.634;9.420;2023-05-25T07:47:40;99134.28;;;17.53;100.00
53270;BME280;39159;45.634;9.420;2023-05-25T07:50:06;99134.81;;;17.58;100.00
53270;BME280;39159;45.634;9.420;2023-05-25T07:52:31;99131.44;;;17.65;100.00
53270;BME280;39159;45.634;9.420;2023-05-25T07:54:56;99134.19;;;17.77;100.00
53270;BME280;39159;45.634;9.420;2023-05-25T07:57:22;99132.75;;;17.96;100.00
53270;BME280;39159;45.634;9.420;2023-05-25T07:59:47;99131.66;;;18.29;100.00
53270;BME280;39159;45.634;9.420;2023-05-25T08:02:13;99141.81;;;18.72;100.00
53270;BME280;39159;45.634;9.420;2023-05-25T08:04:38;99148.06;;;18.85;100.00
53270;BME280;39159;45.634;9.420;2023-05-25T08:07:04;99140.81;;;19.12;100.00
53270;BME280;39159;45.634;9.420;2023-05-25T08:09:29;99140.41;;;19.49;100.00
53270;BME280;39159;45.634;9.420;2023-05-25T08:11:54;99143.63;;;19.51;100.00
53270;BME280;39159;45.634;9.420;2023-05-25T08:14:20;99154.13;;;19.42;100.00
53270;BME280;39159;45.634;9.420;2023-05-25T08:16:45;99157.13;;;19.53;100.00
53270;BME280;39159;45.634;9.420;2023-05-25T08:19:11;99168.47;;;19.12;100.00
53270;BME280;39159;45.634;9.420;2023-05-25T08:21:36;99176.25;;;18.75;100.00
53270;BME280;39159;45.634;9.420;2023-05-25T08:24:04;99175.63;;;18.97;100.00
53270;BME280;39159;45.634;9.420;2023-05-25T08:26:30;99171.22;;;19.28;100.00
53270;BME280;39159;45.634;9.420;2023-05-25T08:28:56;99187.72;;;19.24;100.00
53270;BME280;39159;45.634;9.420;2023-05-25T08:31:21;99186.56;;;19.10;100.00
53270;BME280;39159;45.634;9.420;2023-05-25T08:33:47;99186.47;;;19.22;100.00
53270;BME280;39159;45.634;9.420;2023-05-25T08:36:12;99194.19;;;19.13;100.00
53270;BME280;39159;45.634;9.420;2023-05-25T08:38:37;99189.69;;;19.59;100.00
53270;BME280;39159;45.634;9.420;2023-05-25T08:41:04;99188.66;;;19.83;100.00
53270;BME280;39159;45.634;9.420;2023-05-25T08:43:31;99186.94;;;20.18;100.00
53270;BME280;39159;45.634;9.420;2023-05-25T08:46:04;99194.59;;;20.47;100.00
53270;BME280;39159;45.634;9.420;2023-05-25T08:48:32;99188.56;;;20.61;100.00
53270;BME280;39159;45.634;9.420;2023-05-25T08:51:00;99192.13;;;21.11;100.00
53270;BME280;39159;45.634;9.420;2023-05-25T08:53:27;99188.28;;;21.43;100.00
53270;BME280;39159;45.634;9.420;2023-05-25T08:55:55;99193.09;;;21.23;92.29
53270;BME280;39159;45.634;9.420;2023-05-25T08:58:30;99190.66;;;21.18;91.93
53270;BME280;39159;45.634;9.420;2023-05-25T09:01:01;99192.94;;;21.39;92.04
53270;BME280;39159;45.634;9.420;2023-05-25T09:03:28;99195.19;;;21.29;88.02
53270;BME280;39159;45.634;9.420;2023-05-25T09:05:55;99199.78;;;21.18;86.45
53270;BME280;39159;45.634;9.420;2023-05-25T09:08:22;99193.69;;;21.09;82.19
53270;BME280;39159;45.634;9.420;2023-05-25T09:10:49;99206.19;;;21.22;79.61
53270;BME280;39159;45.634;9.420;2023-05-25T09:13:16;99210.56;;;20.97;78.26
53270;BME280;39159;45.634;9.420;2023-05-25T09:15:42;99202.84;;;20.86;80.60
53270;BME280;39159;45.634;9.420;2023-05-25T09:18:08;99209.22;;;21.40;80.29
53270;BME280;39159;45.634;9.420;2023-05-25T09:20:33;99213.41;;;21.53;76.50
53270;BME280;39159;45.634;9.420;2023-05-25T09:22:59;99207.59;;;21.92;74.70
53270;BME280;39159;45.634;9.420;2023-05-25T09:25:25;99212.16;;;22.11;73.42
53270;BME280;39159;45.634;9.420;2023-05-25T09:27:52;99213.44;;;22.51;68.58
53270;BME280;39159;45.634;9.420;2023-05-25T09:30:17;99213.66;;;22.35;70.59
53270;BME280;39159;45.634;9.420;2023-05-25T09:32:43;99213.28;;;22.37;69.76
53270;BME280;39159;45.634;9.420;2023-05-25T09:35:11;99221.19;;;22.01;66.53
53270;BME280;39159;45.634;9.420;2023-05-25T09:37:37;99231.94;;;22.74;66.83
53270;BME280;39159;45.634;9.420;2023-05-25T09:40:04;99236.25;;;23.09;69.42
53270;BME280;39159;45.634;9.420;2023-05-25T09:42:30;99231.63;;;22.83;64.87
53270;BME280;39159;45.634;9.420;2023-05-25T09:44:59;99241.00;;;22.67;62.84
53270;BME280;39159;45.634;9.420;2023-05-25T09:47:27;99234.78;;;22.40;67.53
53270;BME280;39159;45.634;9.420;2023-05-25T09:49:55;99243.91;;;22.78;63.39
53270;BME280;39159;45.634;9.420;2023-05-25T09:52:21;99241.53;;;23.21;66.79
53270;BME280;39159;45.634;9.420;2023-05-25T09:54:47;99240.09;;;22.97;65.24
53270;BME280;39159;45.634;9.420;2023-05-25T09:57:14;99244.16;;;23.55;65.71
53270;BME280;39159;45.634;9.420;2023-05-25T09:59:41;99250.75;;;23.91;65.78
53270;BME280;39159;45.634;9.420;2023-05-25T10:02:07;99248.78;;;24.03;64.92
53270;BME280;39159;45.634;9.420;2023-05-25T10:04:32;99254.84;;;24.15;60.03
53270;BME280;39159;45.634;9.420;2023-05-25T10:06:59;99260.78;;;24.07;63.66
53270;BME280;39159;45.634;9.420;2023-05-25T10:09:27;99259.47;;;23.86;60.16
53270;BME280;39159;45.634;9.420;2023-05-25T10:11:56;99266.03;;;23.53;58.98
53270;BME280;39159;45.634;9.420;2023-05-25T10:14:24;99260.97;;;23.17;61.68
53270;BME280;39159;45.634;9.420;2023-05-25T10:16:52;99266.41;;;23.00;59.95
53270;BME280;39159;45.634;9.420;2023-05-25T10:19:32;99267.28;;;23.11;61.69
53270;BME280;39159;45.634;9.420;2023-05-25T10:22:03;99264.88;;;23.06;63.27
53270;BME280;39159;45.634;9.420;2023-05-25T10:27:24;99259.97;;;22.95;62.43
53270;BME280;39159;45.634;9.420;2023-05-25T10:29:51;99260.06;;;23.54;62.27
53270;BME280;39159;45.634;9.420;2023-05-25T10:32:16;99256.69;;;23.86;61.41
53270;BME280;39159;45.634;9.420;2023-05-25T10:34:43;99262.19;;;23.20;60.01
53270;BME280;39159;45.634;9.420;2023-05-25T10:37:10;99263.81;;;23.25;65.72
53270;BME280;39159;45.634;9.420;2023-05-25T10:39:37;99265.75;;;23.17;61.13
53270;BME280;39159;45.634;9.420;2023-05-25T10:42:03;99270.69;;;23.38;63.18
53270;BME280;39159;45.634;9.420;2023-05-25T10:44:30;99266.44;;;23.58;62.25
53270;BME280;39159;45.634;9.420;2023-05-25T10:46:58;99265.13;;;24.08;63.12
53270;BME280;39159;45.634;9.420;2023-05-25T10:49:32;99268.84;;;23.60;63.86
53270;BME280;39159;45.634;9.420;2023-05-25T10:51:59;99269.84;;;23.89;60.35
53270;BME280;39159;45.634;9.420;2023-05-25T10:54:29;99268.22;;;23.29;61.72
53270;BME280;39159;45.634;9.420;2023-05-25T10:57:10;99271.00;;;23.26;63.28
53270;BME280;39159;45.634;9.420;2023-05-25T10:59:40;99264.13;;;23.12;64.55
53270;BME280;39159;45.634;9.420;2023-05-25T11:02:06;99260.84;;;23.55;66.14
53270;BME280;39159;45.634;9.420;2023-05-25T11:04:31;99259.19;;;24.06;63.14
53270;BME280;39159;45.634;9.420;2023-05-25T11:09:28;99254.19;;;24.54;58.99
53270;BME280;39159;45.634;9.420;2023-05-25T11:22:22;99239.88;;;24.77;56.23
53270;BME280;39159;45.634;9.420;2023-05-25T11:24:51;99240.66;;;24.53;56.07
53270;BME280;39159;45.634;9.420;2023-05-25T11:27:27;99236.72;;;24.79;57.21
53270;BME280;39159;45.634;9.420;2023-05-25T11:29:54;99245.03;;;24.72;53.14
53270;BME280;39159;45.634;9.420;2023-05-25T11:32:26;99230.59;;;24.41;55.54
53270;BME280;39159;45.634;9.420;2023-05-25T11:34:54;99234.72;;;24.90;57.55
53270;BME280;39159;45.634;9.420;2023-05-25T11:37:21;99233.50;;;25.52;57.88
53270;BME280;39159;45.634;9.420;2023-05-25T11:39:49;99238.63;;;25.72;52.55
53270;BME280;39159;45.634;9.420;2023-05-25T11:42:22;99242.19;;;25.83;51.66
53270;BME280;39159;45.634;9.420;2023-05-25T11:44:48;99233.91;;;25.58;50.98
53270;BME280;39159;45.634;9.420;2023-05-25T11:47:15;99231.03;;;25.72;50.90
53270;BME280;39159;45.634;9.420;2023-05-25T11:49:47;99222.34;;;25.45;52.17
53270;BME280;39159;45.634;9.420;2023-05-25T11:52:17;99227.47;;;25.61;52.63
53270;BME280;39159;45.634;9.420;2023-05-25T11:54:44;99223.88;;;25.71;52.12
53270;BME280;39159;45.634;9.420;2023-05-25T11:57:18;99220.78;;;25.37;51.24
53270;BME280;39159;45.634;9.420;2023-05-25T11:59:48;99223.91;;;25.53;50.93
53270;BME280;39159;45.634;9.420;2023-05-25T12:02:14;99219.19;;;25.29;50.32
53270;BME280;39159;45.634;9.420;2023-05-25T12:04:39;99213.13;;;25.59;52.77
53270;BME280;39159;45.634;9.420;2023-05-25T12:07:07;99213.94;;;25.52;50.88
53270;BME280;39159;45.634;9.420;2023-05-25T12:09:33;99222.75;;;25.43;50.07
53270;BME280;39159;45.634;9.420;2023-05-25T12:12:02;99207.97;;;25.32;51.23
53270;BME280;39159;45.634;9.420;2023-05-25T12:14:28;99210.38;;;25.37;51.11
53270;BME280;39159;45.634;9.420;2023-05-25T12:16:54;99211.06;;;25.84;52.68
53270;BME280;39159;45.634;9.420;2023-05-25T12:19:20;99209.94;;;25.50;50.76
53270;BME280;39159;45.634;9.420;2023-05-25T12:21:46;99205.47;;;25.81;53.27
53270;BME280;39159;45.634;9.420;2023-05-25T12:24:15;99204.16;;;26.14;50.92
53270;BME280;39159;45.634;9.420;2023-05-25T12:26:49;99203.34;;;26.17;50.18
53270;BME280;39159;45.634;9.420;2023-05-25T12:29:15;99194.75;;;25.65;47.58
53270;BME280;39159;45.634;9.420;2023-05-25T12:31:40;99209.56;;;25.51;49.08
53270;BME280;39159;45.634;9.420;2023-05-25T12:34:13;99205.59;;;25.41;49.79
53270;BME280;39159;45.634;9.420;2023-05-25T12:39:12;99194.41;;;25.41;49.19
53270;BME280;39159;45.634;9.420;2023-05-25T12:41:48;99193.22;;;25.32;51.30
53270;BME280;39159;45.634;9.420;2023-05-25T12:44:17;99183.19;;;25.59;52.44
53270;BME280;39159;45.634;9.420;2023-05-25T12:46:43;99191.47;;;25.81;51.34
53270;BME280;39159;45.634;9.420;2023-05-25T12:49:28;99181.94;;;25.75;50.19
53270;BME280;39159;45.634;9.420;2023-05-25T12:51:54;99184.38;;;25.62;51.82
53270;BME280;39159;45.634;9.420;2023-05-25T12:54:42;99187.03;;;26.05;51.79
53270;BME280;39159;45.634;9.420;2023-05-25T12:57:13;99180.22;;;26.10;51.22
53270;BME280;39159;45.634;9.420;2023-05-25T12:59:40;99185.56;;;25.61;53.00
53270;BME280;39159;45.634;9.420;2023-05-25T13:02:07;99191.50;;;25.77;54.88
53270;BME280;39159;45.634;9.420;2023-05-25T13:04:33;99185.94;;;25.77;52.77
53270;BME280;39159;45.634;9.420;2023-05-25T13:06:59;99184.47;;;25.22;53.95
53270;BME280;39159;45.634;9.420;2023-05-25T13:09:25;99186.00;;;25.49;53.03
53270;BME280;39159;45.634;9.420;2023-05-25T13:11:52;99179.25;;;25.35;53.96